sensor_id;sensor_type;location;lat;lon;timestamp;P1;durP1;ratioP1;P2;durP2;ratioP2
18685;SDS011;9473;52.342;13.110;2022-12-26T00:01:10;9.13;;;4.25;;
18685;SDS011;9473;52.342;13.110;2022-12-26T00:03:38;8.02;;;3.90;;
18685;SDS011;9473;52.342;13.110;2022-12-26T00:06:10;12.45;;;4.05;;
18685;SDS011;9473;52.342;13.110;2022-12-26T00:08:38;7.43;;;3.88;;
18685;SDS011;9473;52.342;13.110;2022-12-26T00:11:07;10.00;;;4.03;;
18685;SDS011;9473;52.342;13.110;2022-12-26T00:13:44;7.22;;;4.18;;
18685;SDS011;9473;52.342;13.110;2022-12-26T00:16:13;5.53;;;3.47;;
18685;SDS011;9473;52.342;13.110;2022-12-26T00:18:41;7.97;;;3.75;;
18685;SDS011;9473;52.342;13.110;2022-12-26T00:21:10;6.53;;;3.95;;
18685;SDS011;9473;52.342;13.110;2022-12-26T00:23:38;7.00;;;3.90;;
18685;SDS011;9473;52.342;13.110;2022-12-26T00:26:08;6.45;;;3.55;;
18685;SDS011;9473;52.342;13.110;2022-12-26T00:28:37;7.60;;;4.10;;
18685;SDS011;9473;52.342;13.110;2022-12-26T00:31:04;7.85;;;3.47;;
18685;SDS011;9473;52.342;13.110;2022-12-26T00:33:32;6.78;;;3.33;;
18685;SDS011;9473;52.342;13.110;2022-12-26T00:36:00;6.93;;;3.45;;
18685;SDS011;9473;52.342;13.110;2022-12-26T00:38:28;6.88;;;3.72;;
18685;SDS011;9473;52.342;13.110;2022-12-26T00:40:56;9.65;;;3.88;;
18685;SDS011;9473;52.342;13.110;2022-12-26T00:43:25;7.50;;;4.03;;
18685;SDS011;9473;52.342;13.110;2022-12-26T00:45:53;7.55;;;3.95;;
18685;SDS011;9473;52.342;13.110;2022-12-26T00:48:23;7.82;;;3.65;;
18685;SDS011;9473;52.342;13.110;2022-12-26T00:50:54;7.00;;;3.80;;
18685;SDS011;9473;52.342;13.110;2022-12-26T00:53:21;7.63;;;3.88;;
18685;SDS011;9473;52.342;13.110;2022-12-26T00:55:48;7.25;;;3.92;;
18685;SDS011;9473;52.342;13.110;2022-12-26T00:58:15;7.32;;;3.70;;
18685;SDS011;9473;52.342;13.110;2022-12-26T01:00:43;8.43;;;3.95;;
18685;SDS011;9473;52.342;13.110;2022-12-26T01:03:11;5.30;;;3.50;;
18685;SDS011;9473;52.342;13.110;2022-12-26T01:05:39;9.43;;;3.80;;
18685;SDS011;9473;52.342;13.110;2022-12-26T01:08:06;9.98;;;3.85;;
18685;SDS011;9473;52.342;13.110;2022-12-26T01:10:34;7.75;;;3.70;;
18685;SDS011;9473;52.342;13.110;2022-12-26T01:13:01;8.70;;;4.03;;
18685;SDS011;9473;52.342;13.110;2022-12-26T01:15:27;8.63;;;3.90;;
18685;SDS011;9473;52.342;13.110;2022-12-26T01:17:55;7.30;;;3.78;;
18685;SDS011;9473;52.342;13.110;2022-12-26T01:20:25;10.77;;;3.72;;
18685;SDS011;9473;52.342;13.110;2022-12-26T01:22:53;6.40;;;4.10;;
18685;SDS011;9473;52.342;13.110;2022-12-26T01:25:20;7.45;;;4.10;;
18685;SDS011;9473;52.342;13.110;2022-12-26T01:27:47;9.88;;;3.65;;
18685;SDS011;9473;52.342;13.110;2022-12-26T01:30:15;7.47;;;3.88;;
18685;SDS011;9473;52.342;13.110;2022-12-26T01:32:42;6.18;;;3.88;;
18685;SDS011;9473;52.342;13.110;2022-12-26T01:35:09;10.50;;;4.50;;
18685;SDS011;9473;52.342;13.110;2022-12-26T01:37:36;7.25;;;4.30;;
18685;SDS011;9473;52.342;13.110;2022-12-26T01:40:04;6.55;;;3.33;;
18685;SDS011;9473;52.342;13.110;2022-12-26T01:42:34;7.95;;;4.05;;
18685;SDS011;9473;52.342;13.110;2022-12-26T01:45:04;12.10;;;4.10;;
18685;SDS011;9473;52.342;13.110;2022-12-26T01:47:35;7.22;;;3.97;;
18685;SDS011;9473;52.342;13.110;2022-12-26T01:50:05;7.78;;;4.43;;
18685;SDS011;9473;52.342;13.110;2022-12-26T01:52:45;8.45;;;4.60;;
18685;SDS011;9473;52.342;13.110;2022-12-26T01:55:14;9.50;;;4.60;;
18685;SDS011;9473;52.342;13.110;2022-12-26T01:57:45;7.72;;;4.47;;
18685;SDS011;9473;52.342;13.110;2022-12-26T02:00:14;7.13;;;4.45;;
18685;SDS011;9473;52.342;13.110;2022-12-26T02:02:41;7.20;;;4.35;;
18685;SDS011;9473;52.342;13.110;2022-12-26T02:05:28;9.50;;;4.60;;
18685;SDS011;9473;52.342;13.110;2022-12-26T02:07:58;11.63;;;4.90;;
18685;SDS011;9473;52.342;13.110;2022-12-26T02:10:28;8.13;;;4.45;;
18685;SDS011;9473;52.342;13.110;2022-12-26T02:12:58;8.68;;;4.55;;
18685;SDS011;9473;52.342;13.110;2022-12-26T02:15:25;8.82;;;4.53;;
18685;SDS011;9473;52.342;13.110;2022-12-26T02:17:52;10.00;;;4.60;;
18685;SDS011;9473;52.342;13.110;2022-12-26T02:20:19;8.65;;;5.38;;
18685;SDS011;9473;52.342;13.110;2022-12-26T02:23:04;7.93;;;4.80;;
18685;SDS011;9473;52.342;13.110;2022-12-26T02:26:10;9.38;;;4.43;;
18685;SDS011;9473;52.342;13.110;2022-12-26T02:29:10;9.07;;;4.75;;
18685;SDS011;9473;52.342;13.110;2022-12-26T02:31:41;9.13;;;5.03;;
18685;SDS011;9473;52.342;13.110;2022-12-26T02:34:14;8.00;;;4.80;;
18685;SDS011;9473;52.342;13.110;2022-12-26T02:36:56;9.10;;;4.20;;
18685;SDS011;9473;52.342;13.110;2022-12-26T02:39:43;7.90;;;4.22;;
18685;SDS011;9473;52.342;13.110;2022-12-26T02:42:22;9.13;;;4.60;;
18685;SDS011;9473;52.342;13.110;2022-12-26T02:45:00;7.13;;;4.22;;
18685;SDS011;9473;52.342;13.110;2022-12-26T02:47:54;9.48;;;4.55;;
18685;SDS011;9473;52.342;13.110;2022-12-26T02:50:28;7.80;;;4.07;;
18685;SDS011;9473;52.342;13.110;2022-12-26T02:53:21;9.80;;;4.28;;
18685;SDS011;9473;52.342;13.110;2022-12-26T02:56:12;7.18;;;4.50;;
18685;SDS011;9473;52.342;13.110;2022-12-26T02:59:03;7.40;;;4.60;;
18685;SDS011;9473;52.342;13.110;2022-12-26T03:01:53;9.52;;;4.43;;
18685;SDS011;9473;52.342;13.110;2022-12-26T03:04:44;7.20;;;4.20;;
18685;SDS011;9473;52.342;13.110;2022-12-26T03:07:36;8.85;;;4.40;;
18685;SDS011;9473;52.342;13.110;2022-12-26T03:10:24;9.25;;;3.72;;
18685;SDS011;9473;52.342;13.110;2022-12-26T03:13:14;8.40;;;4.00;;
18685;SDS011;9473;52.342;13.110;2022-12-26T03:15:48;7.53;;;4.35;;
18685;SDS011;9473;52.342;13.110;2022-12-26T03:18:38;11.98;;;4.72;;
18685;SDS011;9473;52.342;13.110;2022-12-26T03:21:08;7.88;;;4.32;;
18685;SDS011;9473;52.342;13.110;2022-12-26T03:23:37;7.82;;;4.13;;
18685;SDS011;9473;52.342;13.110;2022-12-26T03:26:07;9.65;;;4.55;;
18685;SDS011;9473;52.342;13.110;2022-12-26T03:28:55;5.78;;;3.95;;
18685;SDS011;9473;52.342;13.110;2022-12-26T03:31:42;10.10;;;3.88;;
18685;SDS011;9473;52.342;13.110;2022-12-26T03:34:07;7.75;;;4.28;;
18685;SDS011;9473;52.342;13.110;2022-12-26T03:36:48;8.30;;;4.70;;
18685;SDS011;9473;52.342;13.110;2022-12-26T03:39:24;7.05;;;3.75;;
18685;SDS011;9473;52.342;13.110;2022-12-26T03:42:18;8.50;;;4.13;;
18685;SDS011;9473;52.342;13.110;2022-12-26T03:45:13;7.20;;;4.22;;
18685;SDS011;9473;52.342;13.110;2022-12-26T03:48:11;6.35;;;4.15;;
18685;SDS011;9473;52.342;13.110;2022-12-26T03:51:05;8.18;;;4.68;;
18685;SDS011;9473;52.342;13.110;2022-12-26T03:53:54;8.43;;;4.43;;
18685;SDS011;9473;52.342;13.110;2022-12-26T03:56:46;8.13;;;4.20;;
18685;SDS011;9473;52.342;13.110;2022-12-26T03:59:36;9.95;;;3.72;;
18685;SDS011;9473;52.342;13.110;2022-12-26T04:02:24;8.25;;;3.60;;
18685;SDS011;9473;52.342;13.110;2022-12-26T04:05:16;9.45;;;4.13;;
18685;SDS011;9473;52.342;13.110;2022-12-26T04:08:04;6.80;;;3.72;;
18685;SDS011;9473;52.342;13.110;2022-12-26T04:10:57;7.13;;;3.83;;
18685;SDS011;9473;52.342;13.110;2022-12-26T04:13:46;5.47;;;3.72;;
18685;SDS011;9473;52.342;13.110;2022-12-26T04:16:36;7.40;;;4.13;;
18685;SDS011;9473;52.342;13.110;2022-12-26T04:19:29;8.35;;;3.80;;
18685;SDS011;9473;52.342;13.110;2022-12-26T04:22:11;6.28;;;3.70;;
18685;SDS011;9473;52.342;13.110;2022-12-26T04:25:05;9.73;;;4.45;;
18685;SDS011;9473;52.342;13.110;2022-12-26T04:27:53;9.90;;;3.80;;
18685;SDS011;9473;52.342;13.110;2022-12-26T04:30:38;8.13;;;3.78;;
18685;SDS011;9473;52.342;13.110;2022-12-26T04:33:27;6.68;;;3.83;;
18685;SDS011;9473;52.342;13.110;2022-12-26T04:36:16;7.70;;;3.70;;
18685;SDS011;9473;52.342;13.110;2022-12-26T04:39:06;5.90;;;3.70;;
18685;SDS011;9473;52.342;13.110;2022-12-26T04:41:54;7.75;;;3.92;;
18685;SDS011;9473;52.342;13.110;2022-12-26T04:44:42;8.05;;;3.90;;
18685;SDS011;9473;52.342;13.110;2022-12-26T04:47:09;6.60;;;3.47;;
18685;SDS011;9473;52.342;13.110;2022-12-26T04:49:43;6.47;;;3.58;;
18685;SDS011;9473;52.342;13.110;2022-12-26T04:52:28;9.07;;;4.00;;
18685;SDS011;9473;52.342;13.110;2022-12-26T04:55:09;6.25;;;3.60;;
18685;SDS011;9473;52.342;13.110;2022-12-26T04:57:35;7.03;;;3.50;;
18685;SDS011;9473;52.342;13.110;2022-12-26T05:00:04;6.15;;;3.47;;
18685;SDS011;9473;52.342;13.110;2022-12-26T05:02:31;6.47;;;3.63;;
18685;SDS011;9473;52.342;13.110;2022-12-26T05:05:16;6.22;;;4.03;;
18685;SDS011;9473;52.342;13.110;2022-12-26T05:08:00;6.93;;;3.70;;
18685;SDS011;9473;52.342;13.110;2022-12-26T05:10:50;6.38;;;3.67;;
18685;SDS011;9473;52.342;13.110;2022-12-26T05:13:16;6.68;;;3.63;;
18685;SDS011;9473;52.342;13.110;2022-12-26T05:15:44;7.57;;;3.63;;
18685;SDS011;9473;52.342;13.110;2022-12-26T05:18:28;6.53;;;3.50;;
18685;SDS011;9473;52.342;13.110;2022-12-26T05:21:12;7.57;;;3.92;;
18685;SDS011;9473;52.342;13.110;2022-12-26T05:24:00;7.88;;;3.60;;
18685;SDS011;9473;52.342;13.110;2022-12-26T05:26:45;6.78;;;3.38;;
18685;SDS011;9473;52.342;13.110;2022-12-26T05:29:30;6.60;;;3.40;;
18685;SDS011;9473;52.342;13.110;2022-12-26T05:31:59;6.45;;;3.50;;
18685;SDS011;9473;52.342;13.110;2022-12-26T05:34:26;5.57;;;3.33;;
18685;SDS011;9473;52.342;13.110;2022-12-26T05:36:52;6.45;;;3.30;;
18685;SDS011;9473;52.342;13.110;2022-12-26T05:39:23;6.65;;;3.47;;
18685;SDS011;9473;52.342;13.110;2022-12-26T05:41:50;5.55;;;3.13;;
18685;SDS011;9473;52.342;13.110;2022-12-26T05:44:16;12.05;;;3.72;;
18685;SDS011;9473;52.342;13.110;2022-12-26T05:46:43;6.43;;;3.33;;
18685;SDS011;9473;52.342;13.110;2022-12-26T05:49:12;4.93;;;2.97;;
18685;SDS011;9473;52.342;13.110;2022-12-26T05:51:38;5.95;;;3.42;;
18685;SDS011;9473;52.342;13.110;2022-12-26T05:54:05;6.45;;;3.20;;
18685;SDS011;9473;52.342;13.110;2022-12-26T05:56:31;5.97;;;3.50;;
18685;SDS011;9473;52.342;13.110;2022-12-26T05:58:58;6.78;;;3.00;;
18685;SDS011;9473;52.342;13.110;2022-12-26T06:01:26;5.75;;;3.10;;
18685;SDS011;9473;52.342;13.110;2022-12-26T06:03:54;10.18;;;3.22;;
18685;SDS011;9473;52.342;13.110;2022-12-26T06:06:23;5.72;;;3.20;;
18685;SDS011;9473;52.342;13.110;2022-12-26T06:08:51;5.05;;;3.00;;
18685;SDS011;9473;52.342;13.110;2022-12-26T06:11:20;6.25;;;3.28;;
18685;SDS011;9473;52.342;13.110;2022-12-26T06:13:47;8.07;;;3.70;;
18685;SDS011;9473;52.342;13.110;2022-12-26T06:16:14;6.78;;;3.10;;
18685;SDS011;9473;52.342;13.110;2022-12-26T06:18:41;7.57;;;3.22;;
18685;SDS011;9473;52.342;13.110;2022-12-26T06:21:09;5.03;;;2.60;;
18685;SDS011;9473;52.342;13.110;2022-12-26T06:23:38;9.98;;;3.30;;
18685;SDS011;9473;52.342;13.110;2022-12-26T06:26:05;6.15;;;3.20;;
18685;SDS011;9473;52.342;13.110;2022-12-26T06:28:34;7.45;;;3.22;;
18685;SDS011;9473;52.342;13.110;2022-12-26T06:31:01;8.63;;;3.03;;
18685;SDS011;9473;52.342;13.110;2022-12-26T06:33:28;3.40;;;2.40;;
18685;SDS011;9473;52.342;13.110;2022-12-26T06:36:00;7.70;;;3.10;;
18685;SDS011;9473;52.342;13.110;2022-12-26T06:38:28;5.18;;;3.00;;
18685;SDS011;9473;52.342;13.110;2022-12-26T06:40:56;5.32;;;3.10;;
18685;SDS011;9473;52.342;13.110;2022-12-26T06:43:23;5.03;;;3.15;;
18685;SDS011;9473;52.342;13.110;2022-12-26T06:45:53;5.22;;;3.42;;
18685;SDS011;9473;52.342;13.110;2022-12-26T06:48:20;6.88;;;3.08;;
18685;SDS011;9473;52.342;13.110;2022-12-26T06:50:47;5.70;;;2.92;;
18685;SDS011;9473;52.342;13.110;2022-12-26T06:53:13;5.68;;;3.38;;
18685;SDS011;9473;52.342;13.110;2022-12-26T06:55:40;4.18;;;2.85;;
18685;SDS011;9473;52.342;13.110;2022-12-26T06:58:07;6.45;;;3.03;;
18685;SDS011;9473;52.342;13.110;2022-12-26T07:00:35;5.25;;;3.20;;
18685;SDS011;9473;52.342;13.110;2022-12-26T07:03:02;6.55;;;2.80;;
18685;SDS011;9473;52.342;13.110;2022-12-26T07:05:28;5.65;;;2.58;;
18685;SDS011;9473;52.342;13.110;2022-12-26T07:07:55;4.28;;;2.72;;
18685;SDS011;9473;52.342;13.110;2022-12-26T07:10:21;4.30;;;2.35;;
18685;SDS011;9473;52.342;13.110;2022-12-26T07:12:48;5.13;;;2.65;;
18685;SDS011;9473;52.342;13.110;2022-12-26T07:15:16;6.80;;;2.47;;
18685;SDS011;9473;52.342;13.110;2022-12-26T07:17:43;4.75;;;2.95;;
18685;SDS011;9473;52.342;13.110;2022-12-26T07:20:09;8.60;;;2.95;;
18685;SDS011;9473;52.342;13.110;2022-12-26T07:22:37;5.85;;;3.00;;
18685;SDS011;9473;52.342;13.110;2022-12-26T07:25:04;7.82;;;2.97;;
18685;SDS011;9473;52.342;13.110;2022-12-26T07:27:31;5.25;;;3.00;;
18685;SDS011;9473;52.342;13.110;2022-12-26T07:29:57;4.90;;;2.65;;
18685;SDS011;9473;52.342;13.110;2022-12-26T07:32:25;4.78;;;2.95;;
18685;SDS011;9473;52.342;13.110;2022-12-26T07:34:52;5.32;;;2.80;;
18685;SDS011;9473;52.342;13.110;2022-12-26T07:37:18;5.97;;;2.95;;
18685;SDS011;9473;52.342;13.110;2022-12-26T07:39:45;6.07;;;3.05;;
18685;SDS011;9473;52.342;13.110;2022-12-26T07:42:11;5.40;;;3.30;;
18685;SDS011;9473;52.342;13.110;2022-12-26T07:44:38;7.25;;;3.97;;
18685;SDS011;9473;52.342;13.110;2022-12-26T07:47:05;5.90;;;3.28;;
18685;SDS011;9473;52.342;13.110;2022-12-26T07:49:33;5.20;;;3.28;;
18685;SDS011;9473;52.342;13.110;2022-12-26T07:52:00;6.85;;;3.33;;
18685;SDS011;9473;52.342;13.110;2022-12-26T07:54:28;6.45;;;3.15;;
18685;SDS011;9473;52.342;13.110;2022-12-26T07:56:56;7.82;;;3.40;;
18685;SDS011;9473;52.342;13.110;2022-12-26T07:59:22;4.85;;;3.00;;
18685;SDS011;9473;52.342;13.110;2022-12-26T08:01:49;6.60;;;3.10;;
18685;SDS011;9473;52.342;13.110;2022-12-26T08:04:16;7.00;;;3.10;;
18685;SDS011;9473;52.342;13.110;2022-12-26T08:06:45;7.90;;;3.38;;
18685;SDS011;9473;52.342;13.110;2022-12-26T08:11:40;6.38;;;3.10;;
18685;SDS011;9473;52.342;13.110;2022-12-26T08:14:07;7.50;;;3.40;;
18685;SDS011;9473;52.342;13.110;2022-12-26T08:16:36;6.28;;;3.50;;
18685;SDS011;9473;52.342;13.110;2022-12-26T08:19:02;5.63;;;3.42;;
18685;SDS011;9473;52.342;13.110;2022-12-26T08:21:29;7.60;;;3.50;;
18685;SDS011;9473;52.342;13.110;2022-12-26T08:23:59;6.20;;;3.67;;
18685;SDS011;9473;52.342;13.110;2022-12-26T08:26:25;9.77;;;3.72;;
18685;SDS011;9473;52.342;13.110;2022-12-26T08:28:53;7.05;;;3.72;;
18685;SDS011;9473;52.342;13.110;2022-12-26T08:31:21;7.18;;;3.50;;
18685;SDS011;9473;52.342;13.110;2022-12-26T08:33:47;5.85;;;3.58;;
18685;SDS011;9473;52.342;13.110;2022-12-26T08:36:14;7.13;;;3.88;;
18685;SDS011;9473;52.342;13.110;2022-12-26T08:38:43;5.47;;;3.40;;
18685;SDS011;9473;52.342;13.110;2022-12-26T08:41:11;9.88;;;4.10;;
18685;SDS011;9473;52.342;13.110;2022-12-26T08:43:37;8.98;;;3.80;;
18685;SDS011;9473;52.342;13.110;2022-12-26T08:46:05;8.25;;;4.15;;
18685;SDS011;9473;52.342;13.110;2022-12-26T08:48:32;6.68;;;3.78;;
18685;SDS011;9473;52.342;13.110;2022-12-26T08:51:01;8.57;;;3.60;;
18685;SDS011;9473;52.342;13.110;2022-12-26T08:53:30;7.97;;;3.80;;
18685;SDS011;9473;52.342;13.110;2022-12-26T08:55:59;6.93;;;3.53;;
18685;SDS011;9473;52.342;13.110;2022-12-26T08:58:28;8.90;;;3.60;;
18685;SDS011;9473;52.342;13.110;2022-12-26T09:01:00;5.63;;;3.35;;
18685;SDS011;9473;52.342;13.110;2022-12-26T09:03:31;8.43;;;3.72;;
18685;SDS011;9473;52.342;13.110;2022-12-26T09:05:57;9.40;;;4.40;;
18685;SDS011;9473;52.342;13.110;2022-12-26T09:08:24;7.82;;;3.60;;
18685;SDS011;9473;52.342;13.110;2022-12-26T09:10:51;7.57;;;3.63;;
18685;SDS011;9473;52.342;13.110;2022-12-26T09:13:17;8.15;;;3.70;;
18685;SDS011;9473;52.342;13.110;2022-12-26T09:15:45;5.70;;;3.38;;
18685;SDS011;9473;52.342;13.110;2022-12-26T09:18:12;9.55;;;3.55;;
18685;SDS011;9473;52.342;13.110;2022-12-26T09:20:38;5.68;;;3.45;;
18685;SDS011;9473;52.342;13.110;2022-12-26T09:23:05;5.70;;;3.20;;
18685;SDS011;9473;52.342;13.110;2022-12-26T09:25:34;5.75;;;3.28;;
18685;SDS011;9473;52.342;13.110;2022-12-26T09:28:01;8.18;;;3.47;;
18685;SDS011;9473;52.342;13.110;2022-12-26T09:30:28;6.93;;;3.17;;
18685;SDS011;9473;52.342;13.110;2022-12-26T09:32:55;5.57;;;3.38;;
18685;SDS011;9473;52.342;13.110;2022-12-26T09:35:22;6.25;;;3.58;;
18685;SDS011;9473;52.342;13.110;2022-12-26T09:37:48;6.05;;;3.40;;
18685;SDS011;9473;52.342;13.110;2022-12-26T09:40:20;6.63;;;3.95;;
18685;SDS011;9473;52.342;13.110;2022-12-26T09:42:51;6.70;;;3.25;;
18685;SDS011;9473;52.342;13.110;2022-12-26T09:45:27;6.20;;;3.13;;
18685;SDS011;9473;52.342;13.110;2022-12-26T09:48:10;7.43;;;3.05;;
18685;SDS011;9473;52.342;13.110;2022-12-26T09:50:43;6.70;;;3.47;;
18685;SDS011;9473;52.342;13.110;2022-12-26T09:53:15;9.75;;;3.50;;
18685;SDS011;9473;52.342;13.110;2022-12-26T09:55:45;5.68;;;3.33;;
18685;SDS011;9473;52.342;13.110;2022-12-26T09:58:18;6.65;;;3.25;;
18685;SDS011;9473;52.342;13.110;2022-12-26T10:00:51;5.63;;;3.30;;
18685;SDS011;9473;52.342;13.110;2022-12-26T10:03:22;6.38;;;3.30;;
18685;SDS011;9473;52.342;13.110;2022-12-26T10:05:55;6.90;;;3.30;;
18685;SDS011;9473;52.342;13.110;2022-12-26T10:08:39;5.05;;;3.05;;
18685;SDS011;9473;52.342;13.110;2022-12-26T10:11:23;5.60;;;2.78;;
18685;SDS011;9473;52.342;13.110;2022-12-26T10:13:58;4.95;;;2.90;;
18685;SDS011;9473;52.342;13.110;2022-12-26T10:16:32;7.30;;;3.10;;
18685;SDS011;9473;52.342;13.110;2022-12-26T10:19:05;5.43;;;2.83;;
18685;SDS011;9473;52.342;13.110;2022-12-26T10:21:44;7.22;;;3.38;;
18685;SDS011;9473;52.342;13.110;2022-12-26T10:24:19;5.68;;;3.08;;
18685;SDS011;9473;52.342;13.110;2022-12-26T10:26:48;5.07;;;3.03;;
18685;SDS011;9473;52.342;13.110;2022-12-26T10:29:18;6.35;;;2.80;;
18685;SDS011;9473;52.342;13.110;2022-12-26T10:31:51;5.18;;;2.55;;
18685;SDS011;9473;52.342;13.110;2022-12-26T10:34:23;4.53;;;2.47;;
18685;SDS011;9473;52.342;13.110;2022-12-26T10:36:54;4.80;;;2.42;;
18685;SDS011;9473;52.342;13.110;2022-12-26T10:39:27;3.75;;;2.45;;
18685;SDS011;9473;52.342;13.110;2022-12-26T10:41:59;5.20;;;2.80;;
18685;SDS011;9473;52.342;13.110;2022-12-26T10:44:33;3.75;;;2.25;;
18685;SDS011;9473;52.342;13.110;2022-12-26T10:47:06;7.32;;;2.72;;
18685;SDS011;9473;52.342;13.110;2022-12-26T10:49:37;3.47;;;2.38;;
18685;SDS011;9473;52.342;13.110;2022-12-26T10:52:04;3.55;;;2.42;;
18685;SDS011;9473;52.342;13.110;2022-12-26T10:54:31;3.95;;;2.50;;
18685;SDS011;9473;52.342;13.110;2022-12-26T10:56:58;4.18;;;2.38;;
18685;SDS011;9473;52.342;13.110;2022-12-26T10:59:28;4.03;;;2.70;;
18685;SDS011;9473;52.342;13.110;2022-12-26T11:02:11;5.50;;;2.80;;
18685;SDS011;9473;52.342;13.110;2022-12-26T11:07:35;5.38;;;2.70;;
18685;SDS011;9473;52.342;13.110;2022-12-26T11:10:04;4.28;;;2.60;;
18685;SDS011;9473;52.342;13.110;2022-12-26T11:12:40;5.47;;;2.40;;
18685;SDS011;9473;52.342;13.110;2022-12-26T11:15:19;4.07;;;2.75;;
18685;SDS011;9473;52.342;13.110;2022-12-26T11:17:48;4.78;;;2.78;;
18685;SDS011;9473;52.342;13.110;2022-12-26T11:20:21;4.95;;;2.72;;
18685;SDS011;9473;52.342;13.110;2022-12-26T11:22:52;3.38;;;2.22;;
18685;SDS011;9473;52.342;13.110;2022-12-26T11:25:20;4.28;;;2.30;;
18685;SDS011;9473;52.342;13.110;2022-12-26T11:27:49;4.03;;;2.20;;
18685;SDS011;9473;52.342;13.110;2022-12-26T11:30:23;3.78;;;2.28;;
18685;SDS011;9473;52.342;13.110;2022-12-26T11:33:03;3.97;;;2.38;;
18685;SDS011;9473;52.342;13.110;2022-12-26T11:35:32;4.18;;;2.20;;
18685;SDS011;9473;52.342;13.110;2022-12-26T11:38:03;3.75;;;2.35;;
18685;SDS011;9473;52.342;13.110;2022-12-26T11:40:33;5.45;;;2.67;;
18685;SDS011;9473;52.342;13.110;2022-12-26T11:43:04;3.83;;;2.45;;
18685;SDS011;9473;52.342;13.110;2022-12-26T11:45:35;3.70;;;2.40;;
18685;SDS011;9473;52.342;13.110;2022-12-26T11:48:17;4.90;;;2.45;;
18685;SDS011;9473;52.342;13.110;2022-12-26T11:50:48;4.05;;;2.53;;
18685;SDS011;9473;52.342;13.110;2022-12-26T11:53:17;3.78;;;2.30;;
18685;SDS011;9473;52.342;13.110;2022-12-26T11:55:46;2.92;;;2.10;;
18685;SDS011;9473;52.342;13.110;2022-12-26T11:58:23;3.78;;;2.47;;
18685;SDS011;9473;52.342;13.110;2022-12-26T12:01:06;3.63;;;2.28;;
18685;SDS011;9473;52.342;13.110;2022-12-26T12:03:39;4.65;;;2.38;;
18685;SDS011;9473;52.342;13.110;2022-12-26T12:06:12;3.88;;;2.60;;
18685;SDS011;9473;52.342;13.110;2022-12-26T12:09:00;5.28;;;2.65;;
18685;SDS011;9473;52.342;13.110;2022-12-26T12:11:32;4.25;;;2.40;;
18685;SDS011;9473;52.342;13.110;2022-12-26T12:14:18;4.65;;;2.80;;
18685;SDS011;9473;52.342;13.110;2022-12-26T12:16:58;4.45;;;2.63;;
18685;SDS011;9473;52.342;13.110;2022-12-26T12:19:36;5.22;;;2.85;;
18685;SDS011;9473;52.342;13.110;2022-12-26T12:28:05;4.20;;;2.58;;
18685;SDS011;9473;52.342;13.110;2022-12-26T12:30:43;6.85;;;3.88;;
18685;SDS011;9473;52.342;13.110;2022-12-26T12:33:32;7.68;;;3.80;;
18685;SDS011;9473;52.342;13.110;2022-12-26T12:36:06;4.88;;;2.90;;
18685;SDS011;9473;52.342;13.110;2022-12-26T12:38:36;3.93;;;2.50;;
18685;SDS011;9473;52.342;13.110;2022-12-26T12:41:20;6.38;;;2.80;;
18685;SDS011;9473;52.342;13.110;2022-12-26T12:44:06;5.85;;;2.67;;
18685;SDS011;9473;52.342;13.110;2022-12-26T12:46:40;5.88;;;2.60;;
18685;SDS011;9473;52.342;13.110;2022-12-26T12:49:20;5.13;;;2.92;;
18685;SDS011;9473;52.342;13.110;2022-12-26T12:52:02;4.78;;;2.63;;
18685;SDS011;9473;52.342;13.110;2022-12-26T12:54:41;5.72;;;2.80;;
18685;SDS011;9473;52.342;13.110;2022-12-26T12:57:32;5.50;;;2.83;;
18685;SDS011;9473;52.342;13.110;2022-12-26T13:00:09;4.85;;;2.38;;
18685;SDS011;9473;52.342;13.110;2022-12-26T13:02:41;6.22;;;2.75;;
18685;SDS011;9473;52.342;13.110;2022-12-26T13:05:14;4.57;;;2.70;;
18685;SDS011;9473;52.342;13.110;2022-12-26T13:07:45;6.22;;;2.92;;
18685;SDS011;9473;52.342;13.110;2022-12-26T13:10:17;6.25;;;2.95;;
18685;SDS011;9473;52.342;13.110;2022-12-26T13:12:47;6.72;;;3.20;;
18685;SDS011;9473;52.342;13.110;2022-12-26T13:15:21;4.68;;;2.70;;
18685;SDS011;9473;52.342;13.110;2022-12-26T13:17:55;6.15;;;3.00;;
18685;SDS011;9473;52.342;13.110;2022-12-26T13:20:26;7.20;;;3.15;;
18685;SDS011;9473;52.342;13.110;2022-12-26T13:22:59;5.10;;;2.80;;
18685;SDS011;9473;52.342;13.110;2022-12-26T13:25:47;5.38;;;2.75;;
18685;SDS011;9473;52.342;13.110;2022-12-26T13:28:26;4.45;;;2.83;;
18685;SDS011;9473;52.342;13.110;2022-12-26T13:30:54;5.05;;;2.95;;
18685;SDS011;9473;52.342;13.110;2022-12-26T13:33:21;6.47;;;3.00;;
18685;SDS011;9473;52.342;13.110;2022-12-26T13:35:49;4.85;;;2.90;;
18685;SDS011;9473;52.342;13.110;2022-12-26T13:38:22;4.85;;;2.90;;
18685;SDS011;9473;52.342;13.110;2022-12-26T13:40:51;5.68;;;3.08;;
18685;SDS011;9473;52.342;13.110;2022-12-26T13:46:33;6.30;;;3.35;;
18685;SDS011;9473;52.342;13.110;2022-12-26T13:49:02;5.47;;;3.03;;
18685;SDS011;9473;52.342;13.110;2022-12-26T13:51:42;5.22;;;3.10;;
18685;SDS011;9473;52.342;13.110;2022-12-26T13:54:11;6.82;;;3.28;;
18685;SDS011;9473;52.342;13.110;2022-12-26T13:56:55;5.75;;;3.30;;
18685;SDS011;9473;52.342;13.110;2022-12-26T13:59:47;7.15;;;3.20;;
18685;SDS011;9473;52.342;13.110;2022-12-26T14:02:25;6.45;;;3.47;;
18685;SDS011;9473;52.342;13.110;2022-12-26T14:05:24;5.63;;;3.28;;
18685;SDS011;9473;52.342;13.110;2022-12-26T14:07:58;4.93;;;2.90;;
18685;SDS011;9473;52.342;13.110;2022-12-26T14:10:32;6.07;;;2.92;;
18685;SDS011;9473;52.342;13.110;2022-12-26T14:13:12;5.07;;;3.08;;
18685;SDS011;9473;52.342;13.110;2022-12-26T14:15:58;4.60;;;3.10;;
18685;SDS011;9473;52.342;13.110;2022-12-26T14:18:32;5.32;;;3.10;;
18685;SDS011;9473;52.342;13.110;2022-12-26T14:21:15;5.38;;;3.10;;
18685;SDS011;9473;52.342;13.110;2022-12-26T14:23:56;4.57;;;2.90;;
18685;SDS011;9473;52.342;13.110;2022-12-26T14:26:29;6.05;;;3.20;;
18685;SDS011;9473;52.342;13.110;2022-12-26T14:29:05;3.97;;;2.50;;
18685;SDS011;9473;52.342;13.110;2022-12-26T14:31:40;6.28;;;2.92;;
18685;SDS011;9473;52.342;13.110;2022-12-26T14:34:15;6.05;;;3.40;;
18685;SDS011;9473;52.342;13.110;2022-12-26T14:36:51;5.95;;;2.92;;
18685;SDS011;9473;52.342;13.110;2022-12-26T14:39:34;6.03;;;2.85;;
18685;SDS011;9473;52.342;13.110;2022-12-26T14:42:14;4.50;;;2.90;;
18685;SDS011;9473;52.342;13.110;2022-12-26T14:45:08;5.28;;;2.83;;
18685;SDS011;9473;52.342;13.110;2022-12-26T14:47:59;4.97;;;2.85;;
18685;SDS011;9473;52.342;13.110;2022-12-26T14:50:33;7.55;;;3.10;;
18685;SDS011;9473;52.342;13.110;2022-12-26T14:56:07;6.78;;;3.20;;
18685;SDS011;9473;52.342;13.110;2022-12-26T15:01:46;7.57;;;3.40;;
18685;SDS011;9473;52.342;13.110;2022-12-26T15:04:32;5.40;;;3.00;;
18685;SDS011;9473;52.342;13.110;2022-12-26T15:07:23;5.80;;;2.90;;
18685;SDS011;9473;52.342;13.110;2022-12-26T15:10:16;6.32;;;2.90;;
18685;SDS011;9473;52.342;13.110;2022-12-26T15:13:32;6.20;;;2.72;;
18685;SDS011;9473;52.342;13.110;2022-12-26T15:16:23;5.63;;;2.97;;
18685;SDS011;9473;52.342;13.110;2022-12-26T15:19:08;4.85;;;2.85;;
18685;SDS011;9473;52.342;13.110;2022-12-26T15:22:05;3.83;;;2.47;;
18685;SDS011;9473;52.342;13.110;2022-12-26T15:27:58;3.67;;;2.42;;
18685;SDS011;9473;52.342;13.110;2022-12-26T15:30:43;4.20;;;2.45;;
18685;SDS011;9473;52.342;13.110;2022-12-26T15:33:22;6.43;;;2.20;;
18685;SDS011;9473;52.342;13.110;2022-12-26T15:35:58;3.28;;;1.90;;
18685;SDS011;9473;52.342;13.110;2022-12-26T15:38:34;2.00;;;1.50;;
18685;SDS011;9473;52.342;13.110;2022-12-26T15:41:10;3.85;;;1.83;;
18685;SDS011;9473;52.342;13.110;2022-12-26T15:43:53;4.22;;;2.00;;
18685;SDS011;9473;52.342;13.110;2022-12-26T15:46:28;5.22;;;1.98;;
18685;SDS011;9473;52.342;13.110;2022-12-26T15:51:56;3.83;;;1.85;;
18685;SDS011;9473;52.342;13.110;2022-12-26T15:54:33;5.10;;;1.98;;
18685;SDS011;9473;52.342;13.110;2022-12-26T15:57:17;5.20;;;1.98;;